Time;durP1;ratioP1;P1;durP2;ratioP2;P2;SDS_P1;SDS_P2;PMS_P1;PMS_P2;Temp;Humidity;BMP_temperature;BMP_pressure;BME280_temperature;BME280_humidity;BME280_pressure;Samples;Min_cycle;Max_cycle;Signal;HPM_P1;HPM_P2
2022/11/13 00:00:11;;;;;;;0.00;0.00;;;;;;;13.56;100.00;101057.88;6232594;23;20051;-74
2022/11/13 00:02:59;;;;;;;;;;;;;;;;;;;;;
2022/11/13 00:05:41;;;;;;;0.00;0.00;;;;;;;13.65;100.00;101039.75;6234189;23;20031;-74
2022/11/13 00:08:09;;;;;;;0.00;0.00;;;;;;;13.76;100.00;101044.16;6228103;23;20008;-74
2022/11/13 00:10:46;;;;;;;0.00;0.00;;;;;;;13.76;100.00;101044.16;6224861;23;20091;-78
2022/11/13 00:13:22;;;;;;;;;;;;;;;;;;;;;
2022/11/13 00:16:31;;;;;;;0.30;0.30;;;;;;;13.88;100.00;101048.59;6256115;23;20022;-82
2022/11/13 00:18:59;;;;;;;0.00;0.00;;;;;;;13.85;100.00;101049.13;6193190;23;20004;-75
2022/11/13 00:21:33;;;;;;;0.00;0.00;;;;;;;13.83;100.00;101040.31;6226994;23;20084;-74
2022/11/13 00:24:09;;;;;;;0.00;0.00;;;;;;;13.93;100.00;101056.84;6197212;23;20008;-73
2022/11/13 00:26:44;;;;;;;;;;;;;;;;;;;;;
2022/11/13 00:29:24;;;;;;;0.00;0.00;;;;;;;13.81;100.00;101048.03;6262393;23;19992;-77
2022/11/13 00:32:00;;;;;;;;;;;;;;;;;;;;;
2022/11/13 00:34:26;;;;;;;0.00;0.00;;;;;;;13.75;100.00;101037.00;6231227;23;20038;-78
2022/11/13 00:36:54;;;;;;;0.00;0.00;;;;;;;13.70;100.00;101026.03;6252076;22;20023;-75
2022/11/13 00:39:37;;;;;;;0.00;0.00;;;;;;;13.77;100.00;101039.53;6258612;22;19992;-77
2022/11/13 00:42:02;;;;;;;0.00;0.00;;;;;;;13.78;100.00;101038.41;6234181;22;20007;-76
2022/11/13 00:44:28;;;;;;;0.00;0.00;;;;;;;13.83;100.00;101045.81;6284286;22;20445;-76
2022/11/13 00:47:25;;;;;;;0.00;0.00;;;;;;;13.83;100.00;101037.56;6258168;22;20038;-77
2022/11/13 00:50:02;;;;;;;0.00;0.00;;;;;;;13.85;100.00;101033.47;6284184;22;20007;-77
2022/11/13 00:52:35;;;;;;;0.00;0.00;;;;;;;13.75;100.00;101017.78;6259350;22;20007;-78
2022/11/13 00:55:22;;;;;;;;;;;;;;;;;;;;;
2022/11/13 00:58:27;;;;;;;0.00;0.00;;;;;;;13.78;100.00;101009.00;6281771;22;20341;-77
2022/11/13 01:05:22;;;;;;;;;;;;;;;;;;;;;
2022/11/13 01:07:48;;;;;;;0.00;0.00;;;;;;;13.83;100.00;101010.09;6239554;22;20031;-77
2022/11/13 01:10:14;;;;;;;0.00;0.00;;;;;;;13.73;100.00;101009.00;6284346;22;20015;-78
2022/11/13 01:12:57;;;;;;;0.00;0.00;;;;;;;13.73;100.00;101017.22;6287800;22;19999;-77
2022/11/13 01:18:52;;;;;;;0.00;0.00;;;;;;;13.66;100.00;101013.91;6206830;22;20148;-78
2022/11/13 01:21:34;;;;;;;;;;;;;;;;;;;;;
2022/11/13 01:24:47;;;;;;;0.00;0.00;;;;;;;13.71;100.00;101010.34;6283856;22;20034;-77
2022/11/13 01:27:14;;;;;;;0.00;0.00;;;;;;;13.65;100.00;100995.78;6255888;22;20008;-78
2022/11/13 01:29:52;;;;;;;0.00;0.00;;;;;;;13.74;100.00;101007.91;6284163;22;20464;-78
2022/11/13 01:32:20;;;;;;;0.00;0.00;;;;;;;13.76;100.00;101018.63;6225812;22;20599;-76
2022/11/13 01:34:55;;;;;;;0.00;0.00;;;;;;;13.77;100.00;101014.78;6253391;22;20326;-75
2022/11/13 01:37:43;;;;;;;0.00;0.00;;;;;;;13.81;100.00;101012.28;6253262;22;20419;-76
2022/11/13 01:40:29;;;;;;;1.27;1.20;;;;;;;13.77;100.00;101001.03;6259664;22;20003;-75
2022/11/13 01:42:59;;;;;;;0.00;0.00;;;;;;;13.85;100.00;101011.47;6249788;22;20744;-75
2022/11/13 01:46:00;;;;;;;0.00;0.00;;;;;;;13.95;100.00;101027.16;6252947;22;20014;-74
2022/11/13 01:48:33;;;;;;;0.00;0.00;;;;;;;13.91;100.00;101021.38;6250674;22;20399;-75
2022/11/13 01:50:58;;;;;;;0.00;0.00;;;;;;;13.88;100.00;101010.09;6251118;22;20014;-76
2022/11/13 01:53:29;;;;;;;0.00;0.00;;;;;;;13.83;100.00;101001.84;6247839;22;20011;-75
2022/11/13 01:55:55;;;;;;;0.30;0.30;;;;;;;13.86;100.00;101013.13;6249822;22;20008;-76
2022/11/13 01:58:21;;;;;;;0.00;0.00;;;;;;;13.81;100.00;101021.34;6223650;22;20441;-76
2022/11/13 02:00:46;;;;;;;0.00;0.00;;;;;;;13.69;100.00;101007.88;6250263;22;20026;-75
2022/11/13 02:03:34;;;;;;;0.00;0.00;;;;;;;13.74;100.00;101020.78;6249030;22;20004;-74
2022/11/13 02:06:02;;;;;;;0.00;0.00;;;;;;;13.75;100.00;101014.22;6279297;22;20007;-75
2022/11/13 02:08:33;;;;;;;0.00;0.00;;;;;;;13.72;100.00;101004.59;6255403;22;20063;-75
2022/11/13 02:11:07;;;;;;;0.00;0.00;;;;;;;13.67;100.00;101003.75;6234711;22;20003;-75
2022/11/13 02:13:37;;;;;;;0.00;0.00;;;;;;;13.72;100.00;101012.00;6252880;22;19992;-75
2022/11/13 02:16:03;;;;;;;0.00;0.00;;;;;;;13.68;100.00;101006.25;6228658;22;20008;-74
2022/11/13 02:18:36;;;;;;;0.00;0.00;;;;;;;13.66;100.00;101011.16;6254293;22;20402;-74
2022/11/13 02:21:16;;;;;;;0.00;0.00;;;;;;;13.70;100.00;101006.78;6251690;22;20082;-74
2022/11/13 02:23:53;;;;;;;0.00;0.00;;;;;;;13.69;100.00;101001.56;6282066;22;20450;-75
2022/11/13 02:26:24;;;;;;;0.00;0.00;;;;;;;13.62;100.00;100990.81;6251323;22;20023;-75
2022/11/13 02:28:49;;;;;;;0.00;0.00;;;;;;;13.60;100.00;100982.03;6248431;22;20007;-75
2022/11/13 02:31:17;;;;;;;0.00;0.00;;;;;;;13.66;100.00;100991.94;6255904;22;20008;-74
2022/11/13 02:33:43;;;;;;;0.00;0.00;;;;;;;13.68;100.00;100989.75;6251248;22;20014;-75
2022/11/13 02:36:19;;;;;;;0.00;0.00;;;;;;;13.57;100.00;100972.41;6253642;22;20438;-75
2022/11/13 02:39:11;;;;;;;0.00;0.00;;;;;;;13.59;100.00;100980.38;6277664;22;20337;-75
2022/11/13 02:41:37;;;;;;;0.10;0.10;;;;;;;13.52;100.00;100969.69;6253226;22;20311;-76
2022/11/13 02:44:18;;;;;;;;;;;;;;;;;;;;;
2022/11/13 02:47:37;;;;;;;0.00;0.00;;;;;;;13.46;100.00;100964.44;6283867;22;20003;-76
2022/11/13 02:50:25;;;;;;;0.00;0.00;;;;;;;13.46;100.00;100964.44;6214923;22;20374;-75
2022/11/13 02:52:53;;;;;;;0.00;0.00;;;;;;;13.52;100.00;100949.59;6252452;22;20020;-74
2022/11/13 02:55:29;;;;;;;0.00;0.00;;;;;;;13.56;100.00;100953.47;6249538;22;20060;-74
2022/11/13 02:57:55;;;;;;;0.00;0.00;;;;;;;13.50;100.00;100940.81;6227780;22;20007;-72
2022/11/13 03:00:24;;;;;;;0.00;0.00;;;;;;;13.56;100.00;100954.28;6206264;22;20812;-76
2022/11/13 03:02:56;;;;;;;0.00;0.00;;;;;;;13.54;100.00;100942.75;6282362;22;20007;-75
2022/11/13 03:05:32;;;;;;;0.00;0.00;;;;;;;13.61;100.00;100945.22;6280977;22;20004;-78
2022/11/13 03:19:20;;;;;;;;;;;;;;;;;;;;;
2022/11/13 03:22:29;;;;;;;0.00;0.00;;;;;;;13.64;100.00;100930.94;6236565;23;20000;-76
2022/11/13 03:29:31;;;;;;;0.00;0.00;;;;;;;13.66;100.00;100931.47;6206605;23;20074;-77
2022/11/13 03:46:30;;;;;;;;;;;;;;;;;;;;;
2022/11/13 03:49:27;;;;;;;0.13;0.13;;;;;;;13.71;100.00;100895.75;5943346;24;20008;-76
2022/11/13 03:56:05;;;;;;;0.00;0.00;;;;;;;13.65;100.00;100885.03;5828684;24;20011;-77
2022/11/13 03:58:43;;;;;;;0.00;0.00;;;;;;;13.56;100.00;100876.53;5837866;24;20021;-78
2022/11/13 04:01:33;;;;;;;0.00;0.00;;;;;;;13.58;100.00;100874.31;5875804;24;20021;-77
2022/11/13 04:04:32;;;;;;;0.00;0.00;;;;;;;13.59;100.00;100871.31;5932912;24;20032;-77
2022/11/13 04:07:39;;;;;;;2.92;2.47;;;;;;;13.65;100.00;100869.38;5942187;23;20015;-77
2022/11/13 04:10:36;;;;;;;0.00;0.00;;;;;;;13.60;100.00;100856.47;6034683;23;20083;-78
2022/11/13 04:13:24;;;;;;;0.00;0.00;;;;;;;13.65;100.00;100861.13;6222246;22;19983;-76
2022/11/13 04:23:46;;;;;;;0.00;0.00;;;;;;;13.53;100.00;100849.59;6069579;23;20018;-77
2022/11/13 04:33:28;;;;;;;;;;;;;;;;;;;;;
2022/11/13 04:37:00;;;;;;;0.00;0.00;;;;;;;13.53;100.00;100833.13;6022416;23;20026;-77
2022/11/13 04:40:22;;;;;;;0.00;0.00;;;;;;;13.60;100.00;100844.66;6148814;23;20007;-79
2022/11/13 04:46:43;;;;;;;0.00;0.00;;;;;;;13.54;100.00;100841.06;6169809;22;20000;-77
2022/11/13 04:53:43;;;;;;;;;;;;;;;;;;;;;
2022/11/13 04:56:55;;;;;;;;;;;;;;;;;;;;;
2022/11/13 05:03:08;;;;;;;0.00;0.00;;;;;;;13.46;100.00;100827.06;5920439;24;20013;-77
2022/11/13 05:06:10;;;;;;;;;;;;;;;;;;;;;
2022/11/13 05:08:49;;;;;;;0.00;0.00;;;;;;;13.47;100.00;100839.72;6025433;23;20034;-76
2022/11/13 05:11:32;;;;;;;0.00;0.00;;;;;;;13.34;100.00;100813.59;6021550;23;20102;-78
2022/11/13 05:14:17;;;;;;;0.00;0.00;;;;;;;13.39;100.00;100822.69;6018364;23;20011;-78
2022/11/13 05:16:54;;;;;;;;;;;;;;;;;;;;;
2022/11/13 05:24:00;;;;;;;;;;;;;;;;;;;;;
2022/11/13 05:40:49;;;;;;;0.00;0.00;;;;;;;13.27;100.00;100808.34;5987330;23;20032;-78
2022/11/13 05:43:43;;;;;;;;;;;;;;;;;;;;;
2022/11/13 05:46:48;;;;;;;;;;;;;;;;;;;;;
2022/11/13 05:49:16;;;;;;;0.00;0.00;;;;;;;12.94;100.00;100785.84;6071440;23;20030;-78
2022/11/13 05:51:45;;;;;;;0.00;0.00;;;;;;;12.95;100.00;100790.22;6053845;23;20006;-78
2022/11/13 05:54:11;;;;;;;0.00;0.00;;;;;;;12.93;100.00;100771.28;6103301;23;19994;-78
2022/11/13 05:56:36;;;;;;;0.00;0.00;;;;;;;13.12;100.00;100789.16;6181185;23;20000;-78
2022/11/13 05:59:20;;;;;;;0.00;0.00;;;;;;;12.97;100.00;100768.00;6232376;23;20016;-77
2022/11/13 06:02:55;;;;;;;;;;;;;;;;;;;;;
2022/11/13 06:05:21;;;;;;;0.00;0.00;;;;;;;13.10;100.00;100782.00;6131286;23;20947;-76
2022/11/13 06:07:50;;;;;;;0.00;0.00;;;;;;;13.25;100.00;100785.84;6158720;23;20012;-75
2022/11/13 06:13:32;;;;;;;0.00;0.00;;;;;;;13.15;100.00;100775.69;6222069;23;20079;-76
2022/11/13 06:16:36;;;;;;;0.00;0.00;;;;;;;13.25;100.00;100788.59;6204086;23;19992;-75
2022/11/13 06:19:05;;;;;;;0.00;0.00;;;;;;;13.22;100.00;100778.16;6204784;23;20020;-75
2022/11/13 06:21:39;;;;;;;0.00;0.00;;;;;;;13.23;100.00;100785.31;6253421;23;20004;-75
2022/11/13 06:24:11;;;;;;;0.00;0.00;;;;;;;13.17;100.00;100780.91;6226099;23;20952;-75
2022/11/13 06:26:52;;;;;;;0.00;0.00;;;;;;;13.16;100.00;100774.59;6256702;23;20058;-74
2022/11/13 06:29:50;;;;;;;;;;;;;;;;;;;;;
2022/11/13 06:32:37;;;;;;;0.00;0.00;;;;;;;13.23;100.00;100788.06;6244381;23;20037;-74
2022/11/13 06:35:11;;;;;;;0.00;0.00;;;;;;;13.21;100.00;100776.50;6252809;23;19999;-75
2022/11/13 06:37:47;;;;;;;;;;;;;;;;;;;;;
2022/11/13 06:40:13;;;;;;;0.00;0.00;;;;;;;13.10;100.00;100776.50;6257595;22;20035;-78
2022/11/13 06:42:38;;;;;;;0.00;0.00;;;;;;;13.29;100.00;100795.19;6259246;22;20015;-77
2022/11/13 06:48:12;;;;;;;0.15;0.15;;;;;;;13.24;100.00;100787.78;6250071;22;20008;-76
2022/11/13 06:50:46;;;;;;;0.00;0.00;;;;;;;13.24;100.00;100792.44;6255350;22;20041;-76
2022/11/13 06:53:20;;;;;;;0.00;0.00;;;;;;;13.19;100.00;100778.72;6256669;22;20007;-75
2022/11/13 06:55:47;;;;;;;;;;;;;;;13.25;100.00;100803.16;6260890;22;20018;-76
2022/11/13 06:58:13;;;;;;;0.00;0.00;;;;;;;13.25;100.00;100794.09;6282865;22;19903;-76
2022/11/13 07:00:47;;;;;;;0.00;0.00;;;;;;;13.12;100.00;100784.47;6233261;22;20071;-76
2022/11/13 07:03:40;;;;;;;0.00;0.00;;;;;;;13.16;100.00;100790.25;6232589;22;20330;-76
2022/11/13 07:06:27;;;;;;;0.00;0.00;;;;;;;13.20;100.00;100802.31;6284785;22;20008;-76
2022/11/13 07:09:05;;;;;;;0.10;0.10;;;;;;;13.13;100.00;100796.28;6230672;22;20012;-77
2022/11/13 07:11:42;;;;;;;0.00;0.00;;;;;;;13.17;100.00;100797.38;6282909;22;20034;-76
2022/11/13 07:14:12;;;;;;;0.00;0.00;;;;;;;13.20;100.00;100791.34;6248724;22;20034;-75
2022/11/13 07:16:38;;;;;;;0.00;0.00;;;;;;;13.22;100.00;100800.13;6254273;22;19999;-74
2022/11/13 07:19:11;;;;;;;0.00;0.00;;;;;;;13.20;100.00;100802.31;6254818;22;20085;-77
2022/11/13 07:21:44;;;;;;;0.05;0.05;;;;;;;13.17;100.00;100791.88;6261434;22;20007;-76
2022/11/13 07:24:17;;;;;;;0.00;0.00;;;;;;;13.16;100.00;100790.25;6256835;22;20008;-77
2022/11/13 07:26:42;;;;;;;0.00;0.00;;;;;;;13.24;100.00;100800.66;6261239;22;20010;-77
2022/11/13 07:29:08;;;;;;;0.00;0.00;;;;;;;13.21;100.00;100782.00;6283018;22;20000;-77
2022/11/13 07:31:36;;;;;;;0.00;0.00;;;;;;;13.22;100.00;100778.16;6260207;22;20000;-77
2022/11/13 07:34:07;;;;;;;0.00;0.00;;;;;;;13.23;100.00;100780.63;6260927;22;20027;-76
2022/11/13 07:36:33;;;;;;;0.00;0.00;;;;;;;13.19;100.00;100756.75;6255568;22;20014;-75
2022/11/13 07:39:08;;;;;;;;;;;;;;;;;;;;;
2022/11/13 07:41:34;;;;;;;0.00;0.00;;;;;;;13.32;100.00;100789.16;6282968;22;20435;-76
2022/11/13 07:44:02;;;;;;;0.00;0.00;;;;;;;13.34;100.00;100808.94;6258124;22;19991;-79
2022/11/13 07:46:30;;;;;;;0.00;0.00;;;;;;;13.28;100.00;100804.53;6256449;22;20000;-78
2022/11/13 07:48:58;;;;;;;0.00;0.00;;;;;;;13.27;100.00;100808.34;6259041;22;20030;-77
2022/11/13 07:51:27;;;;;;;0.00;0.00;;;;;;;13.32;100.00;100816.63;6259223;22;20598;-77
2022/11/13 07:53:52;;;;;;;0.00;0.00;;;;;;;13.28;100.00;100810.00;6258293;22;20002;-78
2022/11/13 07:56:21;;;;;;;0.00;0.00;;;;;;;13.36;100.00;100812.25;6208215;22;20007;-76
2022/11/13 07:58:47;;;;;;;0.10;0.10;;;;;;;13.39;100.00;100795.22;6257299;22;20027;-78
2022/11/13 08:01:22;;;;;;;0.00;0.00;;;;;;;13.39;100.00;100788.88;6259713;22;20008;-77
2022/11/13 08:03:50;;;;;;;0.00;0.00;;;;;;;13.56;100.00;100807.84;6256565;22;20003;-77
2022/11/13 08:09:27;;;;;;;0.00;0.00;;;;;;;13.62;100.00;100798.47;6231943;22;20013;-76
2022/11/13 08:11:52;;;;;;;0.00;0.00;;;;;;;13.61;100.00;100785.84;6277391;22;20073;-73
2022/11/13 08:14:23;;;;;;;0.00;0.00;;;;;;;13.67;100.00;100782.00;6253972;22;20007;-75
2022/11/13 08:17:11;;;;;;;0.00;0.00;;;;;;;13.73;100.00;100778.13;6281462;22;20008;-74
2022/11/13 08:20:08;;;;;;;;;;;;;;;;;;;;;
2022/11/13 08:22:34;;;;;;;0.00;0.00;;;;;;;13.96;100.00;100773.13;6284995;22;20023;-76
2022/11/13 08:25:11;;;;;;;0.00;0.00;;;;;;;13.96;100.00;100773.13;6258078;22;20018;-76
2022/11/13 08:27:44;;;;;;;0.00;0.00;;;;;;;14.18;100.00;100777.41;6225528;22;20026;-74
2022/11/13 08:30:15;;;;;;;0.00;0.00;;;;;;;14.20;100.00;100764.22;6227892;22;20003;-75
2022/11/13 08:32:43;;;;;;;0.00;0.00;;;;;;;14.26;100.00;100763.09;6230380;22;20023;-75
2022/11/13 08:35:09;;;;;;;0.00;0.00;;;;;;;14.34;100.00;100743.25;6229915;22;20010;-76
2022/11/13 08:37:34;;;;;;;0.00;0.00;;;;;;;14.58;100.00;100767.31;6232889;22;20004;-76
2022/11/13 08:40:20;;;;;;;0.00;0.00;;;;;;;14.56;100.00;100762.09;6254869;22;20030;-75
2022/11/13 08:42:48;;;;;;;0.00;0.00;;;;;;;14.62;100.00;100754.66;6255163;22;20472;-75
2022/11/13 08:45:39;;;;;;;0.00;0.00;;;;;;;14.78;100.00;100764.47;6281761;22;20000;-75
2022/11/13 08:48:07;;;;;;;0.00;0.00;;;;;;;14.79;100.00;100760.59;6259480;22;20018;-76
2022/11/13 08:50:57;;;;;;;0.00;0.00;;;;;;;14.90;100.00;100757.78;6257207;22;20010;-76
2022/11/13 08:53:23;;;;;;;0.00;0.00;;;;;;;14.93;100.00;100743.44;6255543;22;20013;-75
2022/11/13 08:55:49;;;;;;;0.00;0.00;;;;;;;14.98;100.00;100735.13;6255382;22;20517;-75
2022/11/13 08:58:15;;;;;;;0.00;0.00;;;;;;;15.22;100.00;100734.38;6252190;22;20114;-74
2022/11/13 09:00:40;;;;;;;0.00;0.00;;;;;;;15.40;100.00;100730.88;6250610;22;20010;-75
2022/11/13 09:03:12;;;;;;;0.00;0.00;;;;;;;15.58;100.00;100740.34;6279651;22;20414;-74
2022/11/13 09:05:55;;;;;;;0.00;0.00;;;;;;;15.82;100.00;100723.84;6250961;22;20003;-76
2022/11/13 09:08:30;;;;;;;0.00;0.00;;;;;;;15.88;100.00;100721.84;6227500;22;20000;-76
2022/11/13 09:10:55;;;;;;;0.00;0.00;;;;;;;16.17;100.00;100730.03;6250044;22;20026;-75
2022/11/13 09:13:21;;;;;;;0.00;0.00;;;;;;;17.09;100.00;100710.44;6203027;22;19999;-74
2022/11/13 09:15:46;;;;;;;0.00;0.00;;;;;;;17.52;100.00;100715.75;6275822;22;20007;-75
2022/11/13 09:18:12;;;;;;;0.00;0.00;;;;;;;17.51;100.00;100718.78;6232202;22;20363;-76
2022/11/13 09:20:37;;;;;;;0.00;0.00;;;;;;;17.27;100.00;100708.72;6229358;22;20134;-77
2022/11/13 09:23:08;;;;;;;0.00;0.00;;;;;;;17.54;100.00;100712.69;6284817;22;20594;-76
2022/11/13 09:25:35;;;;;;;0.00;0.00;;;;;;;19.76;100.00;100713.84;6283401;22;20056;-76
2022/11/13 09:28:08;;;;;;;0.00;0.00;;;;;;;19.90;100.00;100722.88;6256444;22;20298;-76
2022/11/13 09:30:37;;;;;;;0.00;0.00;;;;;;;19.81;100.00;100724.81;6256858;22;20357;-76
2022/11/13 09:33:03;;;;;;;0.00;0.00;;;;;;;19.96;100.00;100729.94;6253715;22;20003;-75
2022/11/13 09:35:33;;;;;;;0.00;0.00;;;;;;;20.16;100.00;100736.03;6229003;22;20026;-75
2022/11/13 09:38:09;;;;;;;0.00;0.00;;;;;;;18.94;100.00;100720.44;6284263;22;20027;-74
2022/11/13 09:40:54;;;;;;;0.00;0.00;;;;;;;18.40;100.00;100733.31;6287655;22;20046;-74
2022/11/13 09:43:37;;;;;;;0.00;0.00;;;;;;;18.11;100.00;100715.13;6254755;22;20068;-74
2022/11/13 09:46:10;;;;;;;0.00;0.00;;;;;;;17.70;100.00;100722.31;6281966;22;20477;-74
2022/11/13 09:48:47;;;;;;;0.00;0.00;;;;;;;17.33;100.00;100706.69;6253463;22;20008;-74
2022/11/13 09:51:35;;;;;;;0.00;0.00;;;;;;;17.92;100.00;100713.31;6257018;22;20010;-77
2022/11/13 09:54:08;;;;;;;0.00;0.00;;;;;;;19.00;100.00;100719.16;6257282;22;20000;-77
2022/11/13 09:56:42;;;;;;;0.00;0.00;;;;;;;18.63;100.00;100709.25;6257036;22;20007;-75
2022/11/13 09:59:26;;;;;;;;;;;;;;;18.94;100.00;100714.06;6257557;22;20365;-74
2022/11/13 10:02:19;;;;;;;0.00;0.00;;;;;;;21.06;100.00;100709.59;6278863;22;20028;-76
2022/11/13 10:04:57;;;;;;;0.00;0.00;;;;;;;21.90;100.00;100714.69;6260793;22;19999;-76
2022/11/13 10:07:43;;;;;;;0.00;0.00;;;;;;;22.85;100.00;100723.50;6254571;22;20015;-76
2022/11/13 10:10:40;;;;;;;0.00;0.00;;;;;;;24.05;100.00;100732.06;6251928;22;20080;-76
2022/11/13 10:13:39;;;;;;;0.00;0.00;;;;;;;24.92;100.00;100727.06;6255644;22;20429;-73
2022/11/13 10:16:27;;;;;;;0.00;0.00;;;;;;;25.04;100.00;100737.38;6253792;22;20334;-76
2022/11/13 10:18:58;;;;;;;0.00;0.00;;;;;;;26.47;100.00;100736.53;6239627;22;20091;-74
2022/11/13 10:22:12;;;;;;;0.00;0.00;;;;;;;24.09;100.00;100730.16;6252695;22;20007;-75
2022/11/13 10:24:47;;;;;;;0.00;0.00;;;;;;;22.67;100.00;100714.50;6234747;22;20034;-76
2022/11/13 10:28:32;;;;;;;;;;;;;;;;;;;;;
2022/11/13 10:30:57;;;;;;;0.00;0.00;;;;;;;20.05;100.00;100699.44;6199510;22;20334;-75
2022/11/13 10:33:25;;;;;;;0.00;0.00;;;;;;;19.88;100.00;100689.09;6254478;22;20018;-74
2022/11/13 10:36:23;;;;;;;;;;;;;;;;;;;;;
2022/11/13 10:38:55;;;;;;;0.00;0.00;;;;;;;18.81;100.00;100704.66;6282403;22;20103;-74
2022/11/13 10:41:20;;;;;;;0.30;0.30;;;;;;;19.54;100.00;100707.25;6249245;22;20063;-73
2022/11/13 10:44:19;;;;;;;0.00;0.00;;;;;;;19.96;100.00;100685.53;6281474;22;20389;-72
2022/11/13 10:46:44;;;;;;;0.00;0.00;;;;;;;20.54;100.00;100679.84;6252284;22;20007;-74
2022/11/13 10:49:29;;;;;;;0.00;0.00;;;;;;;21.78;100.00;100680.03;6254734;22;20030;-75
2022/11/13 10:51:57;;;;;;;0.00;0.00;;;;;;;24.42;100.00;100687.25;6225721;22;20008;-75
2022/11/13 10:54:26;;;;;;;0.00;0.00;;;;;;;23.81;100.00;100690.94;6252096;22;20610;-75
2022/11/13 10:56:58;;;;;;;0.00;0.00;;;;;;;24.07;100.00;100682.22;6249598;22;20496;-75
2022/11/13 10:59:25;;;;;;;0.00;0.00;;;;;;;26.15;100.00;100682.56;6251167;22;20029;-75
2022/11/13 11:01:50;;;;;;;0.00;0.00;;;;;;;28.73;100.00;100694.66;6275949;22;20003;-74
2022/11/13 11:04:26;;;;;;;0.00;0.00;;;;;;;29.41;100.00;100694.59;6253642;22;20004;-71
2022/11/13 11:06:53;;;;;;;0.00;0.00;;;;;;;30.49;95.07;100694.53;6250258;22;20437;-74
2022/11/13 11:09:28;;;;;;;0.00;0.00;;;;;;;30.48;94.06;100692.13;6280271;22;20006;-73
2022/11/13 11:12:15;;;;;;;0.00;0.00;;;;;;;29.98;97.15;100695.44;6277963;22;20053;-74
2022/11/13 11:14:44;;;;;;;0.00;0.00;;;;;;;31.13;99.82;100687.47;6279265;22;20023;-73
2022/11/13 11:17:14;;;;;;;0.00;0.00;;;;;;;33.09;91.19;100680.16;6248610;22;20019;-76
2022/11/13 11:19:46;;;;;;;0.00;0.00;;;;;;;33.85;84.67;100680.34;6251986;22;20039;-73
2022/11/13 11:22:18;;;;;;;0.00;0.00;;;;;;;32.87;93.89;100678.28;6275840;22;19999;-72
2022/11/13 11:25:11;;;;;;;0.00;0.00;;;;;;;34.34;87.78;100672.53;6253436;22;19999;-74
2022/11/13 11:27:45;;;;;;;0.00;0.00;;;;;;;35.41;86.13;100666.56;6248723;22;20012;-75
2022/11/13 11:30:11;;;;;;;0.00;0.00;;;;;;;36.59;80.28;100657.00;6252243;22;20073;-72
2022/11/13 11:32:44;;;;;;;0.00;0.00;;;;;;;36.15;83.47;100661.97;6280771;22;20403;-72
2022/11/13 11:35:35;;;;;;;0.00;0.00;;;;;;;34.19;86.52;100646.34;6253428;22;20426;-73
2022/11/13 11:38:19;;;;;;;0.00;0.00;;;;;;;31.26;98.44;100648.34;6262009;22;20010;-74
2022/11/13 11:40:50;;;;;;;0.00;0.00;;;;;;;29.53;99.50;100627.88;6279571;22;20514;-75
2022/11/13 11:43:24;;;;;;;0.00;0.00;;;;;;;27.62;100.00;100623.66;6250381;22;20018;-74
2022/11/13 11:45:49;;;;;;;0.00;0.00;;;;;;;26.30;100.00;100614.47;6250720;22;20004;-75
2022/11/13 11:48:18;;;;;;;0.00;0.00;;;;;;;26.48;100.00;100609.19;6248229;22;20507;-75
2022/11/13 11:51:02;;;;;;;0.00;0.00;;;;;;;26.88;100.00;100605.16;6251528;22;20835;-75
2022/11/13 11:54:03;;;;;;;0.00;0.00;;;;;;;29.76;100.00;100608.72;6249843;22;20074;-76
2022/11/13 11:56:54;;;;;;;0.00;0.00;;;;;;;32.43;100.00;100603.25;6281049;22;20006;-74
2022/11/13 11:59:32;;;;;;;0.00;0.00;;;;;;;31.94;100.00;100605.09;6253200;22;20110;-75
2022/11/13 12:02:17;;;;;;;0.00;0.00;;;;;;;33.43;97.90;100595.31;6254890;22;20000;-75
2022/11/13 12:05:06;;;;;;;0.00;0.00;;;;;;;33.97;92.46;100588.28;6280687;22;19996;-75
2022/11/13 12:07:35;;;;;;;0.00;0.00;;;;;;;35.68;88.83;100588.13;6253515;22;20007;-75
2022/11/13 12:10:18;;;;;;;0.00;0.00;;;;;;;37.12;84.56;100584.94;6255974;22;20007;-74
2022/11/13 12:13:08;;;;;;;0.00;0.00;;;;;;;38.84;79.48;100561.25;6281637;22;20046;-74
2022/11/13 12:15:48;;;;;;;0.00;0.00;;;;;;;39.92;77.21;100563.19;6260424;22;20798;-82
2022/11/13 12:18:38;;;;;;;0.00;0.00;;;;;;;40.18;75.25;100568.78;6257765;22;19999;-76
2022/11/13 12:21:34;;;;;;;0.00;0.00;;;;;;;39.27;78.22;100559.81;6255385;22;20055;-74
2022/11/13 12:24:10;;;;;;;0.00;0.00;;;;;;;37.51;81.55;100554.63;6281034;22;20027;-74
2022/11/13 12:27:35;;;;;;;0.00;0.00;;;;;;;36.97;86.32;100561.72;6260004;22;20016;-81
2022/11/13 12:30:16;;;;;;;0.00;0.00;;;;;;;36.78;87.92;100549.19;6282814;22;20012;-73
2022/11/13 12:33:13;;;;;;;0.00;0.00;;;;;;;37.12;84.07;100539.34;6253265;22;19995;-73
2022/11/13 12:35:39;;;;;;;0.00;0.00;;;;;;;37.14;84.51;100525.47;6283605;22;20021;-74
2022/11/13 12:38:33;;;;;;;0.00;0.00;;;;;;;37.80;82.60;100525.31;6255200;22;20151;-75
2022/11/13 12:41:04;;;;;;;0.00;0.00;;;;;;;38.48;81.43;100522.41;6205185;22;20784;-75
2022/11/13 12:45:14;;;;;;;0.00;0.00;;;;;;;39.31;78.59;100511.84;6284804;22;20059;-77
2022/11/13 12:47:22;;;;;;;0.00;0.00;;;;;;;40.27;76.61;100500.88;6145102;23;20041;-78
2022/11/13 12:50:01;;;;;;;0.00;0.00;;;;;;;40.16;70.86;100519.75;6138971;23;20040;-74
2022/11/13 12:52:36;;;;;;;0.00;0.00;;;;;;;38.53;79.03;100493.28;6268936;22;20377;-75
2022/11/13 12:55:04;;;;;;;0.00;0.00;;;;;;;38.09;73.33;100496.69;6254924;22;20063;-74
2022/11/13 12:57:31;;;;;;;0.00;0.00;;;;;;;38.23;82.05;100506.88;6286423;22;20020;-74
2022/11/13 13:00:09;;;;;;;0.00;0.00;;;;;;;38.26;82.14;100503.13;6257464;22;20015;-77
2022/11/13 13:03:12;;;;;;;0.00;0.00;;;;;;;38.02;81.00;100500.56;6284236;22;20060;-74
2022/11/13 13:06:00;;;;;;;0.00;0.00;;;;;;;39.10;79.36;100494.19;6256486;22;20008;-75
2022/11/13 13:08:48;;;;;;;0.00;0.00;;;;;;;39.26;76.96;100487.53;6284204;22;20004;-75
2022/11/13 13:11:35;;;;;;;0.00;0.00;;;;;;;38.47;78.89;100489.41;6257784;22;20007;-75
2022/11/13 13:14:34;;;;;;;0.00;0.00;;;;;;;36.31;82.58;100482.72;6249642;22;20335;-76
2022/11/13 13:17:21;;;;;;;0.00;0.00;;;;;;;36.60;89.56;100467.00;6258876;22;20008;-75
2022/11/13 13:20:15;;;;;;;0.00;0.00;;;;;;;37.55;82.77;100464.84;6258424;22;20134;-75
2022/11/13 13:22:41;;;;;;;0.00;0.00;;;;;;;38.06;81.72;100457.66;6256722;22;20065;-77
2022/11/13 13:25:27;;;;;;;0.00;0.00;;;;;;;38.13;77.57;100468.84;6235186;22;19983;-76
2022/11/13 13:27:59;;;;;;;0.00;0.00;;;;;;;35.87;79.39;100476.41;6258121;22;20098;-74
2022/11/13 13:30:25;;;;;;;0.10;0.10;;;;;;;34.55;74.07;100474.75;6257765;22;19999;-76
2022/11/13 13:33:25;;;;;;;0.00;0.00;;;;;;;32.77;91.36;100458.31;6255891;22;20018;-75
2022/11/13 13:36:24;;;;;;;0.00;0.00;;;;;;;33.36;93.07;100465.03;6255793;22;19995;-76
2022/11/13 13:39:01;;;;;;;0.00;0.00;;;;;;;33.62;80.73;100465.53;6283451;22;20073;-75
2022/11/13 13:41:42;;;;;;;0.00;0.00;;;;;;;31.97;88.53;100443.91;6254764;22;20010;-75
2022/11/13 13:44:29;;;;;;;0.00;0.00;;;;;;;32.78;93.67;100448.59;6256090;22;20098;-73
2022/11/13 13:46:56;;;;;;;0.00;0.00;;;;;;;33.85;90.70;100437.31;6258260;22;20002;-76
2022/11/13 13:49:34;;;;;;;;;;;;;;;;;;;;;
2022/11/13 13:52:01;;;;;;;0.00;0.00;;;;;;;34.82;82.87;100459.75;6286165;22;20139;-74
2022/11/13 13:54:39;;;;;;;0.00;0.00;;;;;;;32.44;85.85;100446.44;6260021;22;20142;-76
2022/11/13 13:57:17;;;;;;;0.00;0.00;;;;;;;32.62;95.23;100439.81;6258286;22;20071;-77
2022/11/13 14:00:03;;;;;;;0.10;0.10;;;;;;;33.78;92.22;100437.41;6259361;22;20046;-76
2022/11/13 14:03:01;;;;;;;;;;;;;;;;;;;;;
2022/11/13 16:27:06;;;;;;;0.00;0.00;;;;;;;14.07;100.00;100321.00;5996201;23;20020;-79
2022/11/13 16:33:10;;;;;;;0.00;0.00;;;;;;;13.65;100.00;100297.81;5868159;24;20018;-76
2022/11/13 16:35:53;;;;;;;0.00;0.00;;;;;;;13.63;100.00;100305.53;5881294;24;20033;-76
2022/11/13 16:38:19;;;;;;;0.00;0.00;;;;;;;13.56;100.00;100300.38;5878316;24;20029;-77
2022/11/13 16:41:28;;;;;;;0.00;0.00;;;;;;;13.51;100.00;100307.84;5935849;24;20013;-78
2022/11/13 16:43:57;;;;;;;0.00;0.00;;;;;;;13.38;100.00;100290.94;6087979;23;20000;-81
2022/11/13 16:46:52;;;;;;;0.00;0.00;;;;;;;13.28;100.00;100283.56;6176247;23;20013;-78
2022/11/13 16:49:53;;;;;;;;;;;;;;;;;;;;;
2022/11/13 16:52:57;;;;;;;;;;;;;;;;;;;;;